createdAt,value
2023-10-22T00:36:35.390Z,13.90
2023-10-22T00:39:02.687Z,14.00
2023-10-22T00:41:29.569Z,14.00
2023-10-22T00:43:56.784Z,14.10
2023-10-22T00:46:26.243Z,14.10
2023-10-22T00:48:54.727Z,14.10
2023-10-22T00:51:21.630Z,14.10
2023-10-22T00:53:50.871Z,14.10
2023-10-22T00:56:18.050Z,14.10
2023-10-22T00:58:45.255Z,14.10
2023-10-22T01:01:13.380Z,14.10
2023-10-22T01:03:41.148Z,14.10
2023-10-22T01:06:08.614Z,14.10
2023-10-22T01:08:37.734Z,14.10
2023-10-22T01:11:12.045Z,14.10
2023-10-22T01:13:41.069Z,14.10
2023-10-22T01:16:11.613Z,14.10
2023-10-22T01:18:38.617Z,14.00
2023-10-22T01:21:05.620Z,14.00
2023-10-22T01:23:39.682Z,14.00
2023-10-22T01:26:08.211Z,14.00
2023-10-22T01:28:38.394Z,13.90
2023-10-22T01:31:11.878Z,13.90
2023-10-22T01:33:39.281Z,13.90
2023-10-22T01:36:06.630Z,13.90
2023-10-22T01:38:33.600Z,13.90
2023-10-22T01:41:05.575Z,13.90
2023-10-22T01:43:32.382Z,13.90
2023-10-22T01:45:59.322Z,14.00
2023-10-22T01:48:26.255Z,13.90
2023-10-22T01:50:53.238Z,13.90
2023-10-22T01:53:20.129Z,13.90
2023-10-22T01:55:47.005Z,13.90
2023-10-22T01:58:13.969Z,13.90
2023-10-22T02:00:40.848Z,13.80
2023-10-22T02:03:08.004Z,13.80
2023-10-22T02:05:35.798Z,13.70
2023-10-22T02:08:04.006Z,13.80
2023-10-22T02:10:31.501Z,13.80
2023-10-22T02:12:58.671Z,13.80
2023-10-22T02:15:27.970Z,13.80
2023-10-22T02:17:55.146Z,13.80
2023-10-22T02:20:22.105Z,13.80
2023-10-22T02:22:49.126Z,13.80
2023-10-22T02:25:19.376Z,13.80
2023-10-22T02:27:46.336Z,13.80
2023-10-22T02:30:14.041Z,13.80
2023-10-22T02:32:41.045Z,13.80
2023-10-22T02:35:08.787Z,13.80
2023-10-22T02:37:35.826Z,13.80
2023-10-22T02:40:02.929Z,13.80
2023-10-22T02:42:31.140Z,13.80
2023-10-22T02:44:58.025Z,13.80
2023-10-22T02:47:24.957Z,13.90
2023-10-22T02:49:51.945Z,13.80
2023-10-22T02:52:18.813Z,13.80
2023-10-22T02:54:45.668Z,13.80
2023-10-22T02:57:12.671Z,13.80
2023-10-22T02:59:39.622Z,13.80
2023-10-22T03:02:06.677Z,13.80
2023-10-22T03:04:33.562Z,13.70
2023-10-22T03:07:00.542Z,13.70
2023-10-22T03:09:27.417Z,13.70
2023-10-22T03:11:54.496Z,13.70
2023-10-22T03:14:21.717Z,13.70
2023-10-22T03:16:49.118Z,13.70
2023-10-22T03:19:18.179Z,13.70
2023-10-22T03:21:45.517Z,13.70
2023-10-22T03:24:13.902Z,13.70
2023-10-22T03:26:40.965Z,13.70
2023-10-22T03:29:08.102Z,13.80
2023-10-22T03:31:35.132Z,13.70
2023-10-22T03:34:02.076Z,13.80
2023-10-22T03:36:28.948Z,13.80
2023-10-22T03:38:55.872Z,13.80
2023-10-22T03:41:22.858Z,13.80
2023-10-22T03:43:50.389Z,13.80
2023-10-22T03:46:17.437Z,13.80
2023-10-22T03:48:44.505Z,13.80
2023-10-22T03:51:13.762Z,13.80
2023-10-22T03:53:41.109Z,13.80
2023-10-22T03:56:11.071Z,13.80
2023-10-22T03:58:37.993Z,13.80
2023-10-22T04:01:05.172Z,13.80
2023-10-22T04:03:32.186Z,13.80
2023-10-22T04:05:59.789Z,13.80
2023-10-22T04:08:27.358Z,13.80
2023-10-22T04:10:54.686Z,13.80
2023-10-22T04:13:21.985Z,13.80
2023-10-22T04:15:49.875Z,13.80
2023-10-22T04:18:18.646Z,13.80
2023-10-22T04:20:46.104Z,13.80
2023-10-22T04:23:13.074Z,13.80
2023-10-22T04:25:41.816Z,13.90
2023-10-22T04:28:09.205Z,13.80
2023-10-22T04:30:41.061Z,13.80
2023-10-22T04:33:09.451Z,13.90
2023-10-22T04:35:37.192Z,13.90
2023-10-22T04:38:04.760Z,13.90
2023-10-22T04:40:36.637Z,13.90
2023-10-22T04:43:04.102Z,13.90
2023-10-22T04:45:31.383Z,13.90
2023-10-22T04:47:58.675Z,13.90
2023-10-22T04:50:25.799Z,13.90
2023-10-22T04:52:54.025Z,13.90
2023-10-22T04:55:21.091Z,13.90
2023-10-22T04:57:48.294Z,13.90
2023-10-22T05:00:15.916Z,13.90
2023-10-22T05:02:43.165Z,13.90
2023-10-22T05:05:10.368Z,13.90
2023-10-22T05:07:37.427Z,13.90
2023-10-22T05:10:05.778Z,13.90
2023-10-22T05:12:32.754Z,13.90
2023-10-22T05:14:59.804Z,13.90
2023-10-22T05:17:26.895Z,13.90
2023-10-22T05:19:53.841Z,13.90
2023-10-22T05:22:21.601Z,13.90
2023-10-22T05:24:49.791Z,13.90
2023-10-22T05:27:20.240Z,13.90
2023-10-22T05:29:50.208Z,13.90
2023-10-22T05:32:17.290Z,13.90
2023-10-22T05:34:44.606Z,13.80
2023-10-22T05:37:11.827Z,13.80
2023-10-22T05:39:38.818Z,13.80
2023-10-22T05:42:07.392Z,13.80
2023-10-22T05:44:38.327Z,13.80
2023-10-22T05:47:06.205Z,13.80
2023-10-22T05:49:33.452Z,13.80
2023-10-22T05:52:00.386Z,13.80
2023-10-22T05:54:27.457Z,13.80
2023-10-22T05:56:57.058Z,13.80
2023-10-22T05:59:24.712Z,13.80
2023-10-22T06:01:51.723Z,13.90
2023-10-22T06:04:18.910Z,13.90
2023-10-22T06:06:45.850Z,13.90
2023-10-22T06:09:13.363Z,13.90
2023-10-22T06:11:40.815Z,13.90
2023-10-22T06:14:09.129Z,13.90
2023-10-22T06:16:37.178Z,13.90
2023-10-22T06:19:05.124Z,13.90
2023-10-22T06:21:32.048Z,13.90
2023-10-22T06:23:59.010Z,13.90
2023-10-22T06:26:26.254Z,14.00
2023-10-22T06:28:53.187Z,14.00
2023-10-22T06:31:20.114Z,14.00
2023-10-22T06:33:47.301Z,14.00
2023-10-22T06:36:22.954Z,14.10
2023-10-22T06:38:50.941Z,14.10
2023-10-22T06:41:25.393Z,14.10
2023-10-22T06:43:53.053Z,14.20
2023-10-22T06:46:20.670Z,14.20
2023-10-22T06:48:49.255Z,14.20
2023-10-22T06:51:17.668Z,14.30
2023-10-22T06:53:51.106Z,14.30
2023-10-22T06:56:18.128Z,14.30
2023-10-22T06:58:46.416Z,14.40
2023-10-22T07:01:15.346Z,14.40
2023-10-22T07:03:47.808Z,14.40
2023-10-22T07:06:15.488Z,14.40
2023-10-22T07:08:44.420Z,14.50
2023-10-22T07:11:11.870Z,14.50
2023-10-22T07:13:38.998Z,14.50
2023-10-22T07:16:07.077Z,14.60
2023-10-22T07:18:34.730Z,14.60
2023-10-22T07:21:02.206Z,14.60
2023-10-22T07:23:32.704Z,14.60
2023-10-22T07:26:00.177Z,14.60
2023-10-22T07:28:27.113Z,14.60
2023-10-22T07:30:54.348Z,14.60
2023-10-22T07:33:21.372Z,14.60
2023-10-22T07:35:56.542Z,14.60
2023-10-22T07:38:25.789Z,14.60
2023-10-22T07:40:57.252Z,14.60
2023-10-22T07:43:26.725Z,14.70
2023-10-22T07:45:54.054Z,14.70
2023-10-22T07:48:21.630Z,14.80
2023-10-22T07:50:48.756Z,14.80
2023-10-22T07:53:15.935Z,14.80
2023-10-22T07:55:43.669Z,14.90
2023-10-22T07:58:10.829Z,14.90
2023-10-22T08:00:37.800Z,14.90
2023-10-22T08:03:05.131Z,14.90
2023-10-22T08:05:33.054Z,14.90
2023-10-22T08:08:00.094Z,14.90
2023-10-22T08:10:28.284Z,14.90
2023-10-22T08:12:55.170Z,14.80
2023-10-22T08:15:22.087Z,14.90
2023-10-22T08:17:51.756Z,14.90
2023-10-22T08:20:18.689Z,14.90
2023-10-22T08:22:45.570Z,15.00
2023-10-22T08:25:12.460Z,15.00
2023-10-22T08:27:39.269Z,15.10
2023-10-22T08:30:07.224Z,15.20
2023-10-22T08:32:35.380Z,15.40
2023-10-22T08:35:07.585Z,15.60
2023-10-22T08:37:34.465Z,15.90
2023-10-22T08:40:01.697Z,16.30
2023-10-22T08:42:29.538Z,16.80
2023-10-22T08:44:56.491Z,17.30
2023-10-22T08:47:23.536Z,17.60
2023-10-22T08:49:55.965Z,17.80
2023-10-22T08:52:23.995Z,17.80
2023-10-22T08:54:53.057Z,17.60
2023-10-22T08:57:23.034Z,17.60
2023-10-22T08:59:49.988Z,17.60
2023-10-22T09:02:18.046Z,17.50
2023-10-22T09:04:45.088Z,17.70
2023-10-22T09:07:12.354Z,17.80
2023-10-22T09:09:41.035Z,18.10
2023-10-22T09:12:14.130Z,18.30
2023-10-22T09:14:45.035Z,18.60
2023-10-22T09:17:20.115Z,18.80
2023-10-22T09:19:49.257Z,18.90
2023-10-22T09:22:27.924Z,18.90
2023-10-22T09:24:58.854Z,18.90
2023-10-22T09:27:30.593Z,19.00
2023-10-22T09:30:03.363Z,19.10
2023-10-22T09:32:31.058Z,19.20
2023-10-22T09:35:15.346Z,19.20
2023-10-22T09:37:54.384Z,19.20
2023-10-22T09:40:23.182Z,19.30
2023-10-22T09:42:51.411Z,19.30
2023-10-22T09:45:24.902Z,19.40
2023-10-22T09:48:08.460Z,19.40
2023-10-22T09:50:46.931Z,19.40
2023-10-22T09:53:18.249Z,19.40
2023-10-22T09:55:50.141Z,19.40
2023-10-22T09:58:19.521Z,19.30
2023-10-22T10:00:51.669Z,19.30
2023-10-22T10:03:22.467Z,19.30
2023-10-22T10:05:52.335Z,19.40
2023-10-22T10:08:20.394Z,19.30
2023-10-22T10:10:48.785Z,19.30
2023-10-22T10:13:16.134Z,19.30
2023-10-22T10:15:43.340Z,19.30
2023-10-22T10:18:11.565Z,19.30
2023-10-22T10:20:41.079Z,19.30
2023-10-22T10:23:11.663Z,19.30
2023-10-22T10:25:40.666Z,19.30
2023-10-22T10:28:10.644Z,19.40
2023-10-22T10:30:38.938Z,19.40
2023-10-22T10:35:56.738Z,19.40
2023-10-22T10:38:24.545Z,19.40
2023-10-22T10:40:56.853Z,19.30
2023-10-22T10:44:10.942Z,19.30
2023-10-22T10:46:37.887Z,19.30
2023-10-22T10:49:05.030Z,19.20
2023-10-22T10:51:32.134Z,19.10
2023-10-22T10:54:19.446Z,19.00
2023-10-22T10:56:53.752Z,18.90
2023-10-22T10:59:35.331Z,18.90
2023-10-22T11:02:09.535Z,18.90
2023-10-22T11:04:39.325Z,18.90
2023-10-22T11:07:18.648Z,18.90
2023-10-22T11:09:52.620Z,18.90
2023-10-22T11:12:21.061Z,19.00
2023-10-22T11:14:56.633Z,19.00
2023-10-22T11:17:23.937Z,19.10
2023-10-22T11:19:52.454Z,19.10
2023-10-22T11:22:20.494Z,19.20
2023-10-22T11:24:49.127Z,19.30
2023-10-22T11:27:17.407Z,19.40
2023-10-22T11:29:51.282Z,19.50
2023-10-22T11:32:23.131Z,19.60
2023-10-22T11:35:09.032Z,19.70
2023-10-22T11:37:42.577Z,19.70
2023-10-22T11:40:32.439Z,19.70
2023-10-22T11:43:04.180Z,19.70
2023-10-22T11:45:37.640Z,19.70
2023-10-22T11:48:16.987Z,19.70
2023-10-22T11:50:51.636Z,19.70
2023-10-22T11:53:19.201Z,19.70
2023-10-22T11:55:49.431Z,19.60
2023-10-22T11:58:21.708Z,19.50
2023-10-22T12:00:49.872Z,19.50
2023-10-22T12:03:17.255Z,19.40
2023-10-22T12:05:44.670Z,19.40
2023-10-22T12:08:12.295Z,19.30
2023-10-22T12:10:39.670Z,19.30
2023-10-22T12:13:08.121Z,19.30
2023-10-22T12:15:36.517Z,19.30
2023-10-22T12:18:04.316Z,19.30
2023-10-22T12:20:31.668Z,19.20
2023-10-22T12:22:59.089Z,19.10
2023-10-22T12:25:26.030Z,19.10
2023-10-22T12:27:53.151Z,19.00
2023-10-22T12:30:20.271Z,18.90
2023-10-22T12:32:47.653Z,18.90
2023-10-22T12:35:15.431Z,18.80
2023-10-22T12:37:42.664Z,18.80
2023-10-22T12:40:10.439Z,18.90
2023-10-22T12:42:42.349Z,18.90
2023-10-22T12:45:11.311Z,18.90
2023-10-22T12:47:38.749Z,18.90
2023-10-22T12:50:06.250Z,18.90
2023-10-22T12:52:33.158Z,18.80
2023-10-22T12:55:00.054Z,18.80
2023-10-22T12:57:26.986Z,18.70
2023-10-22T12:59:53.882Z,18.60
2023-10-22T13:02:20.834Z,18.50
2023-10-22T13:04:49.246Z,18.50
2023-10-22T13:07:19.697Z,18.50
2023-10-22T13:09:47.125Z,18.50
2023-10-22T13:12:14.037Z,18.40
2023-10-22T13:14:41.011Z,18.40
2023-10-22T13:17:07.944Z,18.40
2023-10-22T13:19:35.005Z,18.40
2023-10-22T13:22:01.891Z,18.30
2023-10-22T13:24:28.909Z,18.30
2023-10-22T13:26:55.908Z,18.30
2023-10-22T13:29:22.795Z,18.30
2023-10-22T13:31:50.555Z,18.30
2023-10-22T13:34:17.493Z,18.30
2023-10-22T13:36:44.337Z,18.30
2023-10-22T13:39:11.324Z,18.40
2023-10-22T13:41:38.342Z,18.40
2023-10-22T13:44:06.049Z,18.50
2023-10-22T13:46:33.130Z,18.50
2023-10-22T13:49:00.214Z,18.60
2023-10-22T13:51:27.122Z,18.60
2023-10-22T13:53:54.028Z,18.60
2023-10-22T13:56:20.906Z,18.70
2023-10-22T13:58:47.804Z,18.80
2023-10-22T14:01:14.838Z,18.90
2023-10-22T14:03:43.623Z,19.00
2023-10-22T14:06:10.806Z,19.10
2023-10-22T14:08:37.718Z,19.10
2023-10-22T14:11:04.598Z,19.10
2023-10-22T14:13:31.503Z,19.20
2023-10-22T14:16:05.965Z,19.20
2023-10-22T14:18:33.159Z,19.20
2023-10-22T14:21:10.349Z,19.20
2023-10-22T14:23:38.396Z,19.20
2023-10-22T14:26:05.292Z,19.30
2023-10-22T14:28:32.245Z,19.40
2023-10-22T14:30:59.663Z,19.50
2023-10-22T14:33:26.626Z,19.60
2023-10-22T14:36:05.463Z,19.70
2023-10-22T14:38:33.367Z,19.80
2023-10-22T14:41:04.205Z,19.90
2023-10-22T14:43:32.566Z,19.90
2023-10-22T14:46:01.481Z,20.00
2023-10-22T14:48:29.339Z,20.00
2023-10-22T14:51:04.289Z,20.00
2023-10-22T14:53:31.522Z,20.10
2023-10-22T14:56:04.486Z,20.10
2023-10-22T14:58:31.516Z,20.10
2023-10-22T15:01:03.293Z,20.10
2023-10-22T15:03:31.459Z,20.10
2023-10-22T15:05:58.574Z,20.10
2023-10-22T15:08:25.571Z,20.10
2023-10-22T15:10:53.308Z,20.20
2023-10-22T15:13:20.385Z,20.30
2023-10-22T15:15:48.607Z,20.40
2023-10-22T15:18:16.584Z,20.40
2023-10-22T15:20:49.995Z,20.30
2023-10-22T15:23:18.101Z,20.20
2023-10-22T15:25:52.784Z,20.10
2023-10-22T15:28:19.992Z,20.00
2023-10-22T15:30:47.471Z,19.90
2023-10-22T15:33:15.789Z,19.80
2023-10-22T15:35:42.870Z,19.60
2023-10-22T15:38:11.557Z,19.50
2023-10-22T15:40:38.686Z,19.40
2023-10-22T15:43:05.707Z,19.30
2023-10-22T15:45:33.083Z,19.20
2023-10-22T15:48:02.393Z,19.00
2023-10-22T15:50:30.488Z,18.90
2023-10-22T15:52:57.796Z,18.80
2023-10-22T15:55:24.913Z,18.70
2023-10-22T15:57:56.097Z,18.60
2023-10-22T16:00:23.904Z,18.50
2023-10-22T16:02:51.433Z,18.50
2023-10-22T16:05:18.982Z,18.40
2023-10-22T16:07:46.192Z,18.30
2023-10-22T16:10:14.475Z,18.20
2023-10-22T16:12:43.215Z,18.10
2023-10-22T16:15:13.707Z,18.00
2023-10-22T16:17:43.721Z,17.90
2023-10-22T16:20:13.431Z,17.90
2023-10-22T16:22:40.847Z,17.80
2023-10-22T16:25:08.343Z,17.70
2023-10-22T16:27:35.730Z,17.60
2023-10-22T16:30:04.196Z,17.50
2023-10-22T16:32:31.411Z,17.40
2023-10-22T16:34:59.335Z,17.30
2023-10-22T16:37:26.274Z,17.30
2023-10-22T16:39:53.311Z,17.20
2023-10-22T16:42:20.629Z,17.10
2023-10-22T16:44:54.240Z,17.00
2023-10-22T16:47:21.141Z,17.00
2023-10-22T16:49:48.037Z,16.80
2023-10-22T16:52:14.971Z,16.80
2023-10-22T16:54:41.956Z,16.70
2023-10-22T16:57:08.975Z,16.60
2023-10-22T16:59:35.970Z,16.50
2023-10-22T17:02:03.218Z,16.50
2023-10-22T17:04:30.248Z,16.40
2023-10-22T17:06:57.155Z,16.40
2023-10-22T17:09:25.465Z,16.30
2023-10-22T17:11:52.378Z,16.30
2023-10-22T17:14:19.422Z,16.20
2023-10-22T17:16:46.497Z,16.10
2023-10-22T17:19:13.677Z,16.10
2023-10-22T17:21:40.825Z,16.00
2023-10-22T17:24:08.308Z,15.90
2023-10-22T17:26:35.207Z,15.90
2023-10-22T17:29:02.145Z,15.80
2023-10-22T17:31:30.444Z,15.80
2023-10-22T17:34:05.667Z,15.80
2023-10-22T17:36:34.096Z,15.70
2023-10-22T17:39:01.203Z,15.60
2023-10-22T17:41:28.093Z,15.60
2023-10-22T17:43:55.000Z,15.60
2023-10-22T17:46:22.374Z,15.50
2023-10-22T17:48:50.281Z,15.40
2023-10-22T17:51:17.934Z,15.40
2023-10-22T17:53:48.135Z,15.30
2023-10-22T17:56:15.478Z,15.30
2023-10-22T17:58:43.206Z,15.20
2023-10-22T18:01:10.373Z,15.20
2023-10-22T18:03:38.695Z,15.10
2023-10-22T18:06:06.971Z,15.10
2023-10-22T18:08:35.913Z,15.10
2023-10-22T18:11:04.233Z,15.00
2023-10-22T18:13:32.361Z,15.00
2023-10-22T18:15:59.836Z,14.90
2023-10-22T18:18:27.041Z,14.90
2023-10-22T18:20:56.029Z,14.90
2023-10-22T18:23:24.473Z,14.90
2023-10-22T18:26:01.251Z,14.80
2023-10-22T18:28:28.362Z,14.80
2023-10-22T18:30:55.357Z,14.80
2023-10-22T18:33:22.468Z,14.80
2023-10-22T18:35:49.590Z,14.70
2023-10-22T18:38:17.817Z,14.70
2023-10-22T18:40:47.956Z,14.70
2023-10-22T18:43:16.397Z,14.60
2023-10-22T18:45:44.341Z,14.60
2023-10-22T18:48:15.529Z,14.60
2023-10-22T18:50:42.556Z,14.50
2023-10-22T18:53:10.286Z,14.50
2023-10-22T18:55:37.220Z,14.50
2023-10-22T18:58:04.318Z,14.40
2023-10-22T19:00:31.407Z,14.40
2023-10-22T19:02:58.580Z,14.40
2023-10-22T19:05:27.565Z,14.40
2023-10-22T19:07:54.435Z,14.30
2023-10-22T19:10:21.453Z,14.40
2023-10-22T19:12:48.469Z,14.30
2023-10-22T19:15:15.810Z,14.30
2023-10-22T19:17:43.032Z,14.30
2023-10-22T19:20:10.977Z,14.20
2023-10-22T19:22:38.254Z,14.20
2023-10-22T19:25:06.058Z,14.20
2023-10-22T19:27:37.129Z,14.20
2023-10-22T19:30:07.286Z,14.20
2023-10-22T19:32:35.050Z,14.10
2023-10-22T19:35:02.324Z,14.10
2023-10-22T19:37:29.330Z,14.10
2023-10-22T19:39:56.449Z,14.10
2023-10-22T19:42:24.944Z,14.10
2023-10-22T19:44:53.552Z,14.00
2023-10-22T19:47:20.485Z,14.00
2023-10-22T19:49:47.436Z,14.00
2023-10-22T19:52:25.671Z,14.00
2023-10-22T19:54:57.429Z,14.00
2023-10-22T19:57:27.373Z,14.00
2023-10-22T19:59:54.874Z,14.00
2023-10-22T20:02:21.972Z,14.00
2023-10-22T20:04:49.004Z,14.00
2023-10-22T20:07:15.997Z,13.90
2023-10-22T20:09:43.238Z,13.90
2023-10-22T20:12:10.359Z,13.90
2023-10-22T20:14:39.707Z,13.90
2023-10-22T20:17:06.848Z,13.90
2023-10-22T20:19:33.688Z,13.90
2023-10-22T20:22:00.833Z,13.90
2023-10-22T20:24:30.585Z,13.90
2023-10-22T20:26:58.427Z,13.90
2023-10-22T20:29:26.913Z,13.90
2023-10-22T20:31:54.359Z,13.80
2023-10-22T20:34:21.758Z,13.80
2023-10-22T20:36:49.070Z,13.80
2023-10-22T20:39:16.203Z,13.80
2023-10-22T20:41:43.170Z,13.70
2023-10-22T20:44:10.404Z,13.70
2023-10-22T20:46:37.393Z,13.70
2023-10-22T20:49:04.855Z,13.60
2023-10-22T20:51:31.979Z,13.60
2023-10-22T20:53:58.874Z,13.60
2023-10-22T20:56:25.876Z,13.50
2023-10-22T20:58:52.758Z,13.50
2023-10-22T21:01:22.770Z,13.50
2023-10-22T21:03:50.484Z,13.40
2023-10-22T21:06:18.247Z,13.40
2023-10-22T21:08:46.406Z,13.40
2023-10-22T21:11:14.071Z,13.40
2023-10-22T21:13:40.927Z,13.30
2023-10-22T21:16:10.170Z,13.30
2023-10-22T21:18:38.775Z,13.30
2023-10-22T21:21:05.730Z,13.30
2023-10-22T21:23:32.716Z,13.30
2023-10-22T21:26:03.731Z,13.20
2023-10-22T21:28:31.017Z,13.20
2023-10-22T21:30:59.337Z,13.20
2023-10-22T21:33:26.339Z,13.20
2023-10-22T21:36:07.451Z,13.20
2023-10-22T21:38:35.566Z,13.20
2023-10-22T21:41:02.505Z,13.30
2023-10-22T21:43:29.505Z,13.20
2023-10-22T21:46:09.864Z,13.20
2023-10-22T21:48:38.228Z,13.20
2023-10-22T21:51:05.829Z,13.20
2023-10-22T21:53:36.286Z,13.20
2023-10-22T21:56:04.259Z,13.20
2023-10-22T21:58:32.183Z,13.20
2023-10-22T22:01:01.450Z,13.20
2023-10-22T22:03:29.001Z,13.10
2023-10-22T22:05:56.286Z,13.20
2023-10-22T22:08:23.317Z,13.10
2023-10-22T22:10:52.754Z,13.10
2023-10-22T22:13:19.990Z,13.10
2023-10-22T22:15:47.308Z,13.10
2023-10-22T22:18:14.410Z,13.10
2023-10-22T22:20:41.344Z,13.10
2023-10-22T22:23:08.218Z,13.10
2023-10-22T22:25:44.182Z,13.10
2023-10-22T22:28:12.384Z,13.10
2023-10-22T22:30:39.539Z,13.10
2023-10-22T22:33:06.807Z,13.10
2023-10-22T22:35:33.784Z,13.10
2023-10-22T22:38:00.678Z,13.10
2023-10-22T22:40:27.548Z,13.10
2023-10-22T22:42:54.496Z,13.10
2023-10-22T22:45:21.349Z,13.10
2023-10-22T22:47:48.398Z,13.10
2023-10-22T22:50:15.483Z,13.10
2023-10-22T22:52:42.450Z,13.10
2023-10-22T22:55:10.029Z,13.10
2023-10-22T22:57:37.022Z,13.10
2023-10-22T23:00:05.575Z,13.00
2023-10-22T23:02:34.050Z,13.00
2023-10-22T23:05:01.455Z,13.00
2023-10-22T23:07:29.503Z,13.00
2023-10-22T23:09:56.687Z,13.00
2023-10-22T23:12:23.768Z,13.00
2023-10-22T23:14:52.923Z,13.00
2023-10-22T23:17:19.910Z,13.00
2023-10-22T23:19:47.164Z,13.00
2023-10-22T23:22:14.993Z,13.00
2023-10-22T23:24:42.480Z,13.00
2023-10-22T23:27:09.478Z,13.00
2023-10-22T23:29:36.437Z,13.10
2023-10-22T23:32:04.084Z,13.00
2023-10-22T23:34:30.908Z,12.90
2023-10-22T23:36:57.815Z,12.90
2023-10-22T23:39:25.341Z,12.90
2023-10-22T23:41:52.267Z,12.90
2023-10-22T23:44:19.109Z,12.90
2023-10-22T23:46:46.086Z,12.90
2023-10-22T23:49:13.491Z,12.90
2023-10-22T23:51:40.657Z,12.90
2023-10-22T23:54:07.671Z,12.80
2023-10-22T23:56:34.528Z,12.80
2023-10-22T23:59:02.367Z,12.80
